METAR Data
IDs: Format: Raw Decoded Include TAF

Data at: 0035 UTC 26 Oct 2021

KGYI 260015Z AUTO 08003KT 10SM CLR 21/13 A2996 RMK AO2 T02120131
KGYI 252250Z 06005KT 10SM SKC 26/13 A2995
KGYI 252150Z 08006KT 10SM SKC 27/12 A2996
KGYI 252050Z 07006KT 10SM SKC 28/12 A2997
KGYI 251950Z 06007KT 10SM SKC 27/12 A2997
KGYI 251750Z 08005KT 10SM SKC 25/14 A3001
KGYI 251650Z 05007KT 10SM SKC 23/14 A3003
KGYI 251550Z 06006KT 10SM SKC 21/14 A3003
KGYI 251450Z 02006KT 10SM SKC 19/15 A3003
KGYI 251350Z 02004KT 10SM SKC 13/13 A3002
KGYI 251250Z 36005KT 5SM BR SKC 12/11 A3001
KGYI 251150Z 04003KT 3SM BR SKC 12/11 A2999
KGYI 251115Z AUTO 00000KT 10SM CLR 12/11 A2998 RMK AO2 T01220112
KGYI 251055Z AUTO 00000KT 10SM CLR 13/12 A2997 RMK AO2 T01300115
KGYI 251035Z AUTO 00000KT 10SM CLR 13/12 A2997 RMK AO2 T01300115
KGYI 251015Z AUTO 20003KT 10SM CLR 12/11 A2996 RMK AO2 T01220109
KGYI 250955Z AUTO 07004KT 10SM CLR 12/11 A2995 RMK AO2 T01240112
KGYI 250935Z AUTO 05004KT 10SM CLR 15/13 A2994 RMK AO2 T01520129
KGYI 250915Z AUTO 00000KT 10SM CLR 14/12 A2994 RMK AO2 T01440122
KGYI 250855Z AUTO 13004KT 10SM CLR 15/12 A2994 RMK AO2 T01500124
KGYI 250835Z AUTO 05005KT 10SM CLR 14/12 A2994 RMK AO2 T01360122
KGYI 250815Z AUTO 04004KT 10SM CLR 14/13 A2994 RMK AO2 T01410125
KGYI 250755Z AUTO 06003KT 10SM CLR 15/13 A2994 RMK AO2 T01500127
KGYI 250735Z AUTO 06004KT 10SM CLR 17/13 A2994 RMK AO2 T01650130
KGYI 250715Z AUTO 10004KT 10SM CLR 17/13 A2994 RMK AO2 T01700131
KGYI 250655Z AUTO 09003KT 10SM CLR 17/13 A2994 RMK AO2 T01740132
KGYI 250635Z AUTO 09003KT 10SM CLR 18/13 A2994 RMK AO2 T01760133
KGYI 250615Z AUTO 06003KT 10SM CLR 18/14 A2994 RMK AO2 T01780135
KGYI 250555Z AUTO 00000KT 10SM CLR 18/14 A2994 RMK AO2 T01810135 10236 20165 402860165
KGYI 250535Z AUTO 02003KT 10SM CLR 17/13 A2994 RMK AO2 T01700133
KGYI 250515Z AUTO 01005KT 10SM CLR 17/13 A2994 RMK AO2 T01660132
KGYI 250455Z AUTO 36005KT 10SM CLR 17/14 A2994 RMK AO2 T01660136
KGYI 250435Z AUTO 36003KT 10SM CLR 18/14 A2994 RMK AO2 T01780136
KGYI 250415Z AUTO 35003KT 10SM CLR 19/14 A2994 RMK AO2 T01850142
KGYI 250355Z AUTO 35004KT 10SM CLR 19/15 A2993 RMK AO2 T01880147
KGYI 250335Z AUTO 34004KT 10SM CLR 20/16 A2992 RMK AO2 T01990157
KGYI 250315Z AUTO 33004KT 10SM CLR 20/16 A2990 RMK AO2 T02010160
KGYI 250255Z AUTO 32004KT 10SM CLR 21/18 A2989 RMK AO2 T02060175
KGYI 250235Z AUTO 28004KT 10SM CLR 20/19 A2988 RMK AO2 T02020188
KGYI 250215Z AUTO 30003KT 10SM CLR 21/19 A2987 RMK AO2 T02130194
KGYI 250155Z AUTO 26004KT 10SM CLR 21/20 A2985 RMK AO2 T02120195
KGYI 250135Z AUTO 24003KT 10SM CLR 21/19 A2984 RMK AO2 T02090193
KGYI 250115Z AUTO 17007KT 10SM CLR 21/19 A2983 RMK AO2 T02110193
KGYI 250055Z AUTO 19007KT 10SM CLR 22/20 A2982 RMK AO2 LTG DSNT SE T02160196
KGYI 250035Z AUTO 17008KT 10SM CLR 22/20 A2981 RMK AO2 LTG DSNT S T02160197
KGYI 250015Z AUTO 19006KT 10SM CLR 22/20 A2980 RMK AO2 LTG DSNT SE T02210198
KGYI 242250Z 17011G14KT 10SM SKC 27/19 A2977
KGYI 242150Z 13014G17KT 10SM SKC 28/19 A2977
KGYI 242050Z 17016G22KT 10SM SCT041 SCT047 28/19 A2977
KGYI 241950Z 18016KT 10SM OVC037 27/19 A2977
KGYI 241850Z 17015G24KT 10SM BKN033 27/19 A2977
KGYI 241750Z 17018G23KT 10SM SCT027 BKN034 26/19 A2979
KGYI 241650Z 17018G24KT 10SM BKN021 25/19 A2982
KGYI 241550Z 16014G22KT 10SM BKN014 SCT021 24/19 A2982
KGYI 241450Z 16014G22KT 10SM BKIN013 22/18 A2986
KGYI 241350Z 17014G22KT 10SM OVC013 21/18 A2984
KGYI 241250Z 16010KT 10SM OVC013 20/18 A2984